createdAt,value
2017-09-02T00:00:04.323Z,82.59
2017-09-02T00:02:32.652Z,82.67
2017-09-02T00:05:00.997Z,82.55
2017-09-02T00:07:29.345Z,83.18
2017-09-02T00:09:57.682Z,83.88
2017-09-02T00:12:26.021Z,84.29
2017-09-02T00:14:54.334Z,84.00
2017-09-02T00:17:22.943Z,84.10
2017-09-02T00:19:51.288Z,84.44
2017-09-02T00:22:19.622Z,84.52
2017-09-02T00:24:47.988Z,84.01
2017-09-02T00:27:16.295Z,83.70
2017-09-02T00:29:44.643Z,83.89
2017-09-02T00:32:12.985Z,84.09
2017-09-02T00:34:41.322Z,83.56
2017-09-02T00:37:09.646Z,83.93
2017-09-02T00:39:37.990Z,83.75
2017-09-02T00:42:06.326Z,83.69
2017-09-02T00:44:34.656Z,83.37
2017-09-02T00:47:03.002Z,83.17
2017-09-02T00:49:31.323Z,82.99
2017-09-02T00:51:59.656Z,83.26
2017-09-02T00:54:28.011Z,83.77
2017-09-02T00:56:56.343Z,84.15
2017-09-02T00:59:24.692Z,84.29
2017-09-02T01:01:53.035Z,84.30
2017-09-02T01:04:21.648Z,84.40
2017-09-02T01:06:49.982Z,84.48
2017-09-02T01:09:18.314Z,83.79
2017-09-02T01:11:46.668Z,83.52
2017-09-02T01:14:14.997Z,83.69
2017-09-02T01:16:43.347Z,84.02
2017-09-02T01:19:11.678Z,84.35
2017-09-02T01:21:40.044Z,84.72
2017-09-02T01:24:08.375Z,84.52
2017-09-02T01:26:36.716Z,84.29
2017-09-02T01:29:05.076Z,84.34
2017-09-02T01:31:34.303Z,84.52
2017-09-02T01:34:02.902Z,85.11
2017-09-02T01:36:31.228Z,85.45
2017-09-02T01:38:59.559Z,85.18
2017-09-02T01:41:27.895Z,85.09
2017-09-02T01:43:56.213Z,84.50
2017-09-02T01:46:24.558Z,85.41
2017-09-02T01:48:52.866Z,85.74
2017-09-02T01:51:21.228Z,86.21
2017-09-02T01:53:49.572Z,85.81
2017-09-02T01:56:17.913Z,85.98
2017-09-02T01:58:46.251Z,86.06
2017-09-02T02:01:14.584Z,86.38
2017-09-02T02:03:42.929Z,85.96
2017-09-02T02:06:11.310Z,85.33
2017-09-02T02:08:39.666Z,84.87
2017-09-02T02:11:08.011Z,85.25
2017-09-02T02:13:36.333Z,84.92
2017-09-02T02:16:04.704Z,85.11
2017-09-02T02:18:33.023Z,85.88
2017-09-02T02:21:01.374Z,86.14
2017-09-02T02:23:29.698Z,85.69
2017-09-02T02:25:58.039Z,85.41
2017-09-02T02:28:26.356Z,85.30
2017-09-02T02:30:55.360Z,85.12
2017-09-02T02:33:24.142Z,85.90
2017-09-02T02:35:54.677Z,85.20
2017-09-02T02:38:23.550Z,85.37
2017-09-02T02:40:52.766Z,86.28
2017-09-02T02:43:21.551Z,85.63
2017-09-02T02:45:50.102Z,85.80
2017-09-02T02:48:18.487Z,85.81
2017-09-02T02:50:46.828Z,85.63
2017-09-02T02:53:15.163Z,86.38
2017-09-02T02:55:43.500Z,86.00
2017-09-02T02:58:11.840Z,86.30
2017-09-02T03:00:40.196Z,86.50
2017-09-02T03:03:08.515Z,86.47
2017-09-02T03:05:36.842Z,85.95
2017-09-02T03:08:05.179Z,85.72
2017-09-02T03:10:33.532Z,85.34
2017-09-02T03:13:01.885Z,84.95
2017-09-02T03:15:30.225Z,85.34
2017-09-02T03:17:58.582Z,85.62
2017-09-02T03:20:26.896Z,86.33
2017-09-02T03:22:55.498Z,86.85
2017-09-02T03:25:23.873Z,86.98
2017-09-02T03:27:52.178Z,86.10
2017-09-02T03:30:20.521Z,85.97
2017-09-02T03:32:48.924Z,85.81
2017-09-02T03:35:17.272Z,85.43
2017-09-02T03:37:45.621Z,85.32
2017-09-02T03:40:14.881Z,85.86
2017-09-02T03:42:43.220Z,86.41
2017-09-02T03:45:11.541Z,86.88
2017-09-02T03:47:39.885Z,86.08
2017-09-02T03:50:08.218Z,85.63
2017-09-02T03:52:36.582Z,85.75
2017-09-02T03:55:04.908Z,86.12
2017-09-02T03:57:33.511Z,85.96
2017-09-02T04:00:01.876Z,86.33
2017-09-02T04:02:30.241Z,86.23
2017-09-02T04:04:58.599Z,86.44
2017-09-02T04:07:26.925Z,86.83
2017-09-02T04:09:55.277Z,87.09
2017-09-02T04:12:23.611Z,87.24
2017-09-02T04:14:51.972Z,87.14
2017-09-02T04:17:20.317Z,87.02
2017-09-02T04:19:48.654Z,87.21
2017-09-02T04:22:17.005Z,87.02
2017-09-02T04:24:45.349Z,87.08
2017-09-02T04:27:13.696Z,86.57
2017-09-02T04:29:42.022Z,85.64
2017-09-02T04:32:10.621Z,86.40
2017-09-02T04:34:38.959Z,86.88
2017-09-02T04:37:07.285Z,86.71
2017-09-02T04:39:35.633Z,86.38
2017-09-02T04:42:03.968Z,86.52
2017-09-02T04:44:32.313Z,87.15
2017-09-02T04:47:00.693Z,86.59
2017-09-02T04:49:29.881Z,86.48
2017-09-02T04:51:58.250Z,86.67
2017-09-02T04:54:26.608Z,87.44
2017-09-02T04:56:54.960Z,86.83
2017-09-02T04:59:23.282Z,87.24
2017-09-02T05:01:51.620Z,86.96
2017-09-02T05:04:19.969Z,86.26
2017-09-02T05:06:48.597Z,86.82
2017-09-02T05:09:16.958Z,86.89
2017-09-02T05:11:45.286Z,86.60
2017-09-02T05:14:13.627Z,86.59
2017-09-02T05:16:41.957Z,86.63
2017-09-02T05:19:10.322Z,86.56
2017-09-02T05:21:38.652Z,86.31
2017-09-02T05:24:07.280Z,86.87
2017-09-02T05:26:35.625Z,87.39
2017-09-02T05:29:03.976Z,87.42
2017-09-02T05:31:32.326Z,87.70
2017-09-02T05:34:00.666Z,87.76
2017-09-02T05:36:29.032Z,88.08
2017-09-02T05:38:57.369Z,87.45
2017-09-02T05:41:26.250Z,87.27
2017-09-02T05:43:54.606Z,87.88
2017-09-02T05:46:22.936Z,88.15
2017-09-02T05:48:51.267Z,87.97
2017-09-02T05:51:19.589Z,87.68
2017-09-02T05:53:47.943Z,87.24
2017-09-02T05:56:16.286Z,87.17
2017-09-02T05:58:44.927Z,87.16
2017-09-02T06:01:13.269Z,86.75
2017-09-02T06:03:41.616Z,88.11
2017-09-02T06:06:09.997Z,88.12
2017-09-02T06:08:38.325Z,88.26
2017-09-02T06:11:06.682Z,88.26
2017-09-02T06:13:34.993Z,88.25
2017-09-02T06:16:03.881Z,88.19
2017-09-02T06:18:32.226Z,87.90
2017-09-02T06:21:00.574Z,87.36
2017-09-02T06:23:28.926Z,86.76
2017-09-02T06:25:58.026Z,86.78
2017-09-02T06:28:26.367Z,86.33
2017-09-02T06:30:54.676Z,86.72
2017-09-02T06:33:22.987Z,87.29
2017-09-02T06:35:51.323Z,88.04
2017-09-02T06:38:19.660Z,87.17
2017-09-02T06:40:48.007Z,86.98
2017-09-02T06:43:16.338Z,86.51
2017-09-02T06:45:44.992Z,86.60
2017-09-02T06:48:14.256Z,87.99
2017-09-02T06:50:42.594Z,87.56
2017-09-02T06:53:10.953Z,86.99
2017-09-02T06:55:39.278Z,86.76
2017-09-02T06:58:07.637Z,86.41
2017-09-02T07:00:36.061Z,86.57
2017-09-02T07:03:04.421Z,86.08
2017-09-02T07:05:32.777Z,86.22
2017-09-02T07:08:01.124Z,84.76
2017-09-02T07:10:29.485Z,84.66
2017-09-02T07:12:57.837Z,83.60
2017-09-02T07:15:26.203Z,83.05
2017-09-02T07:17:54.559Z,83.54
2017-09-02T07:20:23.163Z,84.43
2017-09-02T07:22:51.496Z,85.15
2017-09-02T07:25:19.844Z,85.64
2017-09-02T07:27:48.281Z,85.21
2017-09-02T07:30:16.608Z,84.94
2017-09-02T07:32:44.964Z,84.47
2017-09-02T07:35:13.309Z,84.23
2017-09-02T07:37:41.695Z,83.50
2017-09-02T07:40:10.033Z,81.91
2017-09-02T07:42:38.399Z,81.73
2017-09-02T07:45:06.792Z,81.18
2017-09-02T07:47:35.140Z,81.75
2017-09-02T07:50:03.496Z,79.84
2017-09-02T07:52:31.843Z,79.43
2017-09-02T07:55:00.198Z,78.58
2017-09-02T07:57:28.536Z,77.81
2017-09-02T07:59:56.926Z,79.17
2017-09-02T08:02:25.285Z,77.86
2017-09-02T08:04:53.636Z,77.91
2017-09-02T08:07:22.494Z,77.52
2017-09-02T08:09:50.844Z,76.75
2017-09-02T08:12:19.191Z,76.27
2017-09-02T08:14:47.549Z,76.27
2017-09-02T08:17:15.890Z,75.80
2017-09-02T08:19:44.281Z,76.20
2017-09-02T08:22:12.623Z,76.53
2017-09-02T08:24:40.982Z,76.21
2017-09-02T08:27:09.305Z,75.75
2017-09-02T08:29:37.672Z,74.59
2017-09-02T08:32:06.024Z,74.19
2017-09-02T08:34:34.396Z,74.38
2017-09-02T08:37:02.750Z,74.08
2017-09-02T08:39:31.089Z,73.60
2017-09-02T08:41:59.436Z,72.94
2017-09-02T08:44:27.773Z,72.46
2017-09-02T08:46:56.584Z,71.90
2017-09-02T08:49:24.924Z,71.78
2017-09-02T08:51:53.268Z,71.72
2017-09-02T08:54:21.631Z,70.68
2017-09-02T08:56:49.980Z,70.23
2017-09-02T08:59:18.333Z,70.77
2017-09-02T09:01:46.677Z,70.61
2017-09-02T09:04:15.573Z,71.00
2017-09-02T09:06:43.934Z,70.96
2017-09-02T09:09:12.277Z,69.98
2017-09-02T09:11:40.656Z,69.19
2017-09-02T09:14:08.993Z,69.45
2017-09-02T09:16:37.354Z,68.56
2017-09-02T09:19:05.702Z,68.47
2017-09-02T09:21:34.065Z,69.08
2017-09-02T09:24:02.413Z,67.83
2017-09-02T09:26:30.750Z,67.77
2017-09-02T09:28:59.095Z,67.40
2017-09-02T09:31:27.413Z,67.61
2017-09-02T09:33:56.140Z,67.67
2017-09-02T09:36:24.477Z,66.82
2017-09-02T09:38:52.830Z,66.46
2017-09-02T09:41:21.206Z,66.33
2017-09-02T09:43:49.563Z,66.14
2017-09-02T09:46:17.929Z,65.71
2017-09-02T09:48:46.261Z,65.61
2017-09-02T09:51:14.608Z,65.22
2017-09-02T09:53:42.940Z,64.07
2017-09-02T09:56:11.332Z,63.96
2017-09-02T09:58:39.686Z,64.00
2017-09-02T10:01:08.027Z,63.40
2017-09-02T10:03:36.391Z,64.01
2017-09-02T10:06:04.737Z,63.27
2017-09-02T10:08:33.092Z,63.05
2017-09-02T10:11:01.412Z,63.59
2017-09-02T10:13:29.756Z,62.53
2017-09-02T10:15:58.100Z,61.43
2017-09-02T10:18:26.440Z,61.11
2017-09-02T10:20:54.782Z,60.48
2017-09-02T10:23:23.124Z,60.48
2017-09-02T10:25:51.819Z,59.62
2017-09-02T10:28:20.147Z,58.51
2017-09-02T10:30:48.467Z,58.15
2017-09-02T10:33:16.799Z,59.22
2017-09-02T10:35:45.143Z,58.59
2017-09-02T10:38:13.503Z,58.39
2017-09-02T10:40:41.939Z,59.50
2017-09-02T10:43:10.303Z,60.11
2017-09-02T10:45:39.061Z,61.26
2017-09-02T10:48:07.408Z,62.75
2017-09-02T10:50:35.780Z,64.17
2017-09-02T10:53:04.314Z,65.30
2017-09-02T10:55:32.693Z,64.04
2017-09-02T10:58:01.961Z,63.55
2017-09-02T11:00:30.314Z,64.23
2017-09-02T11:02:58.684Z,63.48
2017-09-02T11:05:27.008Z,62.80
2017-09-02T11:07:55.370Z,60.94
2017-09-02T11:10:23.702Z,61.94
2017-09-02T11:12:52.062Z,63.18
2017-09-02T11:15:20.403Z,62.47
2017-09-02T11:17:48.765Z,63.10
2017-09-02T11:20:17.137Z,65.35
2017-09-02T11:22:45.484Z,66.99
2017-09-02T11:25:13.844Z,66.02
2017-09-02T11:27:42.190Z,66.32
2017-09-02T11:30:10.536Z,67.41
2017-09-02T11:32:38.860Z,69.23
2017-09-02T11:35:07.223Z,70.61
2017-09-02T11:37:35.587Z,72.28
2017-09-02T11:40:04.638Z,73.42
2017-09-02T11:42:32.999Z,73.78
2017-09-02T11:45:01.345Z,74.17
2017-09-02T11:47:29.759Z,74.51
2017-09-02T11:49:58.100Z,75.99
2017-09-02T11:52:26.447Z,76.98
2017-09-02T11:54:54.809Z,77.87
2017-09-02T11:57:23.147Z,78.25
2017-09-02T11:59:51.522Z,78.73
2017-09-02T12:02:19.866Z,78.43
2017-09-02T12:04:48.221Z,80.95
2017-09-02T12:07:16.567Z,82.39
2017-09-02T12:09:44.931Z,82.10
2017-09-02T12:12:13.302Z,81.83
2017-09-02T12:14:41.647Z,80.11
2017-09-02T12:17:10.015Z,79.50
2017-09-02T12:19:38.354Z,79.29
2017-09-02T12:22:07.459Z,80.39
2017-09-02T12:24:35.814Z,78.58
2017-09-02T12:27:04.182Z,77.73
2017-09-02T12:29:32.527Z,75.76
2017-09-02T12:32:00.882Z,74.99
2017-09-02T12:34:29.257Z,76.79
2017-09-02T12:36:57.607Z,75.75
2017-09-02T12:39:25.967Z,75.47
2017-09-02T12:41:54.298Z,73.25
2017-09-02T12:44:22.656Z,73.75
2017-09-02T12:46:51.010Z,73.25
2017-09-02T12:49:19.344Z,74.14
2017-09-02T12:51:47.694Z,73.21
2017-09-02T12:54:16.028Z,72.52
2017-09-02T12:56:44.391Z,72.42
2017-09-02T12:59:12.744Z,70.99
2017-09-02T13:01:41.083Z,69.51
2017-09-02T13:04:09.444Z,71.53
2017-09-02T13:06:37.790Z,67.92
2017-09-02T13:09:06.153Z,68.50
2017-09-02T13:11:34.491Z,68.87
2017-09-02T13:14:03.167Z,69.24
2017-09-02T13:16:31.513Z,70.11
2017-09-02T13:18:59.857Z,70.08
2017-09-02T13:21:28.200Z,67.27
2017-09-02T13:23:56.525Z,68.32
2017-09-02T13:26:25.387Z,71.11
2017-09-02T13:28:53.753Z,71.31
2017-09-02T13:31:22.120Z,71.98
2017-09-02T13:33:50.477Z,73.09
2017-09-02T13:36:18.811Z,71.95
2017-09-02T13:38:47.225Z,73.29
2017-09-02T13:41:15.575Z,71.86
2017-09-02T13:43:43.942Z,72.37
2017-09-02T13:46:12.272Z,71.82
2017-09-02T13:48:41.016Z,73.36
2017-09-02T13:51:09.369Z,71.15
2017-09-02T13:53:37.731Z,73.41
2017-09-02T13:56:08.046Z,72.66
2017-09-02T13:58:36.386Z,72.23
2017-09-02T14:01:05.506Z,73.42
2017-09-02T14:03:33.824Z,74.52
2017-09-02T14:06:02.176Z,75.42
2017-09-02T14:08:30.545Z,79.77
2017-09-02T14:10:58.885Z,81.87
2017-09-02T14:13:27.228Z,83.39
2017-09-02T14:15:55.563Z,82.77
2017-09-02T14:18:24.405Z,82.71
2017-09-02T14:20:52.735Z,83.95
2017-09-02T14:23:21.097Z,84.15
2017-09-02T14:25:49.492Z,84.76
2017-09-02T14:28:17.820Z,84.57
2017-09-02T14:30:47.082Z,85.76
2017-09-02T14:33:15.404Z,85.91
2017-09-02T14:35:43.756Z,85.18
2017-09-02T14:38:12.098Z,85.92
2017-09-02T14:40:40.453Z,85.83
2017-09-02T14:43:08.813Z,85.48
2017-09-02T14:45:37.141Z,84.68
2017-09-02T14:48:05.482Z,84.15
2017-09-02T14:50:33.818Z,84.01
2017-09-02T14:53:02.184Z,85.06
2017-09-02T14:55:30.500Z,85.20
2017-09-02T14:57:58.844Z,86.17
2017-09-02T15:00:27.206Z,84.92
2017-09-02T15:02:55.559Z,85.72
2017-09-02T15:05:23.952Z,86.11
2017-09-02T15:07:52.674Z,85.32
2017-09-02T15:10:21.045Z,84.04
2017-09-02T15:12:49.373Z,85.09
2017-09-02T15:15:17.733Z,82.73
2017-09-02T15:17:46.097Z,78.87
2017-09-02T15:20:14.429Z,77.95
2017-09-02T15:22:43.688Z,78.93
2017-09-02T15:25:12.031Z,80.40
2017-09-02T15:27:40.394Z,78.33
2017-09-02T15:30:08.721Z,78.79
2017-09-02T15:32:37.082Z,73.51
2017-09-02T15:35:05.426Z,74.54
2017-09-02T15:37:33.753Z,80.33
2017-09-02T15:40:02.150Z,82.42
2017-09-02T15:42:30.492Z,83.68
2017-09-02T15:44:59.296Z,83.86
2017-09-02T15:47:27.646Z,83.29
2017-09-02T15:49:56.042Z,82.98
2017-09-02T15:52:24.410Z,82.96
2017-09-02T15:54:52.759Z,84.47
2017-09-02T15:57:21.129Z,83.68
2017-09-02T15:59:49.443Z,84.77
2017-09-02T16:02:18.246Z,84.36
2017-09-02T16:04:46.587Z,84.57
2017-09-02T16:07:14.926Z,85.05
2017-09-02T16:09:43.295Z,84.01
2017-09-02T16:12:12.403Z,83.41
2017-09-02T16:14:41.077Z,84.58
2017-09-02T16:17:09.403Z,83.96
2017-09-02T16:19:37.733Z,84.90
2017-09-02T16:22:06.112Z,84.72
2017-09-02T16:24:34.455Z,84.97
2017-09-02T16:27:02.822Z,84.88
2017-09-02T16:29:31.158Z,86.05
2017-09-02T16:31:59.506Z,85.71
2017-09-02T16:34:27.871Z,85.69
2017-09-02T16:36:56.237Z,84.85
2017-09-02T16:39:24.627Z,82.08
2017-09-02T16:41:52.951Z,82.96
2017-09-02T16:44:21.568Z,82.45
2017-09-02T16:46:49.896Z,83.07
2017-09-02T16:49:18.228Z,82.17
2017-09-02T16:51:46.571Z,82.92
2017-09-02T16:54:14.905Z,83.09
2017-09-02T16:56:43.261Z,84.71
2017-09-02T16:59:11.610Z,84.44
2017-09-02T17:01:39.971Z,85.06
2017-09-02T17:04:08.323Z,84.88
2017-09-02T17:06:36.676Z,85.17
2017-09-02T17:09:05.060Z,85.43
2017-09-02T17:11:33.413Z,85.47
2017-09-02T17:14:01.816Z,84.40
2017-09-02T17:16:30.317Z,84.47
2017-09-02T17:18:58.678Z,84.14
2017-09-02T17:21:27.026Z,84.94
2017-09-02T17:23:55.385Z,84.99
2017-09-02T17:26:24.582Z,84.78
2017-09-02T17:28:52.916Z,84.73
2017-09-02T17:31:21.382Z,84.61
2017-09-02T17:33:49.764Z,84.83
2017-09-02T17:36:18.100Z,85.47
2017-09-02T17:38:46.443Z,85.15
2017-09-02T17:41:14.776Z,85.27
2017-09-02T17:43:43.978Z,85.41
2017-09-02T17:46:12.903Z,86.17
2017-09-02T17:48:41.258Z,86.43
2017-09-02T17:51:09.635Z,85.83
2017-09-02T17:53:37.983Z,86.51
2017-09-02T17:56:06.332Z,87.00
2017-09-02T17:58:35.588Z,86.45
2017-09-02T18:01:04.504Z,85.40
2017-09-02T18:03:32.837Z,86.15
2017-09-02T18:06:01.149Z,86.93
2017-09-02T18:08:29.510Z,86.05
2017-09-02T18:10:57.856Z,85.80
2017-09-02T18:13:26.711Z,86.06
2017-09-02T18:15:55.046Z,85.58
2017-09-02T18:18:23.396Z,86.33
2017-09-02T18:20:51.738Z,86.68
2017-09-02T18:23:20.154Z,86.78
2017-09-02T18:25:48.901Z,85.86
2017-09-02T18:28:17.252Z,87.27
2017-09-02T18:30:45.916Z,87.43
2017-09-02T18:33:14.246Z,87.84
2017-09-02T18:35:42.568Z,86.82
2017-09-02T18:38:10.917Z,87.54
2017-09-02T18:40:42.232Z,87.30
2017-09-02T18:43:10.588Z,88.16
2017-09-02T18:45:38.914Z,87.79
2017-09-02T18:48:10.148Z,86.66
2017-09-02T18:50:38.500Z,87.68
2017-09-02T18:53:06.816Z,88.16
2017-09-02T18:55:35.952Z,87.94
2017-09-02T18:58:04.308Z,87.40
2017-09-02T19:00:32.683Z,87.34
2017-09-02T19:03:01.035Z,88.04
2017-09-02T19:05:29.414Z,87.61
2017-09-02T19:07:57.781Z,87.70
2017-09-02T19:10:26.125Z,87.51
2017-09-02T19:12:54.509Z,88.29
2017-09-02T19:15:24.403Z,88.23
2017-09-02T19:18:05.679Z,88.05
2017-09-02T19:20:51.195Z,87.99
2017-09-02T19:23:20.151Z,87.07
2017-09-02T19:25:48.542Z,88.01
2017-09-02T19:28:17.062Z,88.73
2017-09-02T19:30:45.417Z,88.06
2017-09-02T19:33:13.749Z,88.03
2017-09-02T19:35:42.096Z,87.59
2017-09-02T19:38:11.329Z,88.55
2017-09-02T19:40:40.246Z,87.80
2017-09-02T19:43:08.610Z,88.54
2017-09-02T19:45:36.949Z,88.52
2017-09-02T19:48:05.292Z,88.97
2017-09-02T19:50:33.614Z,88.68
2017-09-02T19:53:02.555Z,88.64
2017-09-02T19:55:30.900Z,89.06
2017-09-02T19:57:59.255Z,88.31
2017-09-02T20:00:27.613Z,87.48
2017-09-02T20:02:55.949Z,86.81
2017-09-02T20:05:26.032Z,86.68
2017-09-02T20:07:54.363Z,86.89
2017-09-02T20:10:22.971Z,86.68
2017-09-02T20:12:51.546Z,86.14
2017-09-02T20:15:20.305Z,87.60
2017-09-02T20:17:56.481Z,87.41
2017-09-02T20:20:24.845Z,88.29
2017-09-02T20:22:53.235Z,87.99
2017-09-02T20:25:22.173Z,87.70
2017-09-02T20:27:50.847Z,86.86
2017-09-02T20:30:19.551Z,87.61
2017-09-02T20:32:48.097Z,87.31
2017-09-02T20:35:16.515Z,87.18
2017-09-02T20:37:45.491Z,87.68
2017-09-02T20:40:13.936Z,87.95
2017-09-02T20:42:43.221Z,88.02
2017-09-02T20:45:12.114Z,88.27
2017-09-02T20:47:40.551Z,87.88
2017-09-02T20:50:08.977Z,88.44
2017-09-02T20:52:37.330Z,87.88
2017-09-02T20:55:05.691Z,87.41
2017-09-02T20:57:34.028Z,87.26
2017-09-02T21:00:02.370Z,87.08
2017-09-02T21:02:32.212Z,88.02
2017-09-02T21:05:00.799Z,88.43
2017-09-02T21:07:29.118Z,88.20
2017-09-02T21:09:57.459Z,88.56
2017-09-02T21:12:25.793Z,88.43
2017-09-02T21:14:54.650Z,88.41
2017-09-02T21:17:22.992Z,87.89
2017-09-02T21:19:51.729Z,87.96
2017-09-02T21:22:23.032Z,87.79
2017-09-02T21:24:51.849Z,87.65
2017-09-02T21:27:20.219Z,87.50
2017-09-02T21:29:48.604Z,87.25
2017-09-02T21:32:16.967Z,88.24
2017-09-02T21:34:45.292Z,88.47
2017-09-02T21:37:14.061Z,89.26
2017-09-02T21:39:42.490Z,88.67
2017-09-02T21:42:10.832Z,88.77
2017-09-02T21:44:39.211Z,88.86
2017-09-02T21:47:07.559Z,89.01
2017-09-02T21:49:36.280Z,88.89
2017-09-02T21:52:04.610Z,87.63
2017-09-02T21:54:32.926Z,87.22
2017-09-02T21:57:01.288Z,88.14
2017-09-02T21:59:29.731Z,88.02
2017-09-02T22:01:58.141Z,87.92
2017-09-02T22:04:26.769Z,88.01
2017-09-02T22:06:55.526Z,88.78
2017-09-02T22:09:23.891Z,88.59
2017-09-02T22:11:52.225Z,88.56
2017-09-02T22:14:20.568Z,88.08
2017-09-02T22:16:48.907Z,87.79
2017-09-02T22:19:17.249Z,87.50
2017-09-02T22:21:45.577Z,87.24
2017-09-02T22:24:14.129Z,86.98
2017-09-02T22:26:42.476Z,87.29
2017-09-02T22:29:10.878Z,88.33
2017-09-02T22:31:39.274Z,88.43
2017-09-02T22:34:07.605Z,87.62
2017-09-02T22:36:35.957Z,88.65
2017-09-02T22:39:04.461Z,89.06
2017-09-02T22:41:33.970Z,89.19
2017-09-02T22:44:02.393Z,88.92
2017-09-02T22:46:30.753Z,88.01
2017-09-02T22:48:59.103Z,87.42
2017-09-02T22:51:27.442Z,87.65
2017-09-02T22:53:55.820Z,87.46
2017-09-02T22:56:24.283Z,87.22
2017-09-02T22:58:52.936Z,88.03
2017-09-02T23:01:21.275Z,87.98
2017-09-02T23:03:49.741Z,87.44
2017-09-02T23:06:18.098Z,87.00
2017-09-02T23:08:46.434Z,87.87
2017-09-02T23:11:14.772Z,88.46
2017-09-02T23:13:44.218Z,87.89
2017-09-02T23:16:12.824Z,87.69
2017-09-02T23:18:41.237Z,87.91
2017-09-02T23:21:09.628Z,88.16
2017-09-02T23:23:38.041Z,88.09
2017-09-02T23:26:06.397Z,88.13
2017-09-02T23:28:34.719Z,88.10
2017-09-02T23:31:03.154Z,88.19
2017-09-02T23:33:31.486Z,87.96
2017-09-02T23:35:59.854Z,88.19
2017-09-02T23:38:28.204Z,88.68
2017-09-02T23:40:56.674Z,88.55
2017-09-02T23:43:25.056Z,88.16
2017-09-02T23:45:53.376Z,87.73
2017-09-02T23:48:21.833Z,87.29
2017-09-02T23:50:50.183Z,87.21
2017-09-02T23:53:18.581Z,87.19
2017-09-02T23:55:46.916Z,87.24
2017-09-02T23:58:15.726Z,87.35
